createdAt,value
2022-11-16T00:00:39.587Z,4.90
2022-11-16T00:01:39.489Z,4.80
2022-11-16T00:02:38.872Z,4.80
2022-11-16T00:03:38.736Z,5.00
2022-11-16T00:04:38.753Z,4.90
2022-11-16T00:05:38.706Z,5.00
2022-11-16T00:06:38.695Z,4.90
2022-11-16T00:07:38.720Z,5.10
2022-11-16T00:08:38.665Z,5.00
2022-11-16T00:09:39.075Z,4.90
2022-11-16T00:10:38.621Z,4.90
2022-11-16T00:11:38.617Z,4.60
2022-11-16T00:12:38.598Z,4.90
2022-11-16T00:13:38.591Z,4.80
2022-11-16T00:14:38.586Z,5.30
2022-11-16T00:15:39.443Z,4.90
2022-11-16T00:16:38.524Z,4.90
2022-11-16T00:17:38.516Z,5.10
2022-11-16T00:18:38.483Z,5.30
2022-11-16T00:19:38.500Z,4.90
2022-11-16T00:20:38.521Z,5.10
2022-11-16T00:21:38.496Z,5.30
2022-11-16T00:22:38.424Z,5.30
2022-11-16T00:23:38.409Z,5.10
2022-11-16T00:24:38.420Z,5.20
2022-11-16T00:25:38.374Z,5.40
2022-11-16T00:26:38.352Z,5.40
2022-11-16T00:27:39.292Z,5.70
2022-11-16T00:28:38.972Z,5.40
2022-11-16T00:29:38.340Z,5.50
2022-11-16T00:30:38.288Z,5.30
2022-11-16T00:31:38.265Z,5.40
2022-11-16T00:32:39.293Z,6.00
2022-11-16T00:33:38.231Z,5.40
2022-11-16T00:34:38.257Z,5.60
2022-11-16T00:35:38.206Z,6.20
2022-11-16T00:36:38.194Z,6.00
2022-11-16T00:37:38.219Z,5.80
2022-11-16T00:38:38.156Z,5.60
2022-11-16T00:39:38.169Z,5.70
2022-11-16T00:40:38.165Z,6.30
2022-11-16T00:41:38.098Z,6.20
2022-11-16T00:42:39.024Z,6.00
2022-11-16T00:43:38.067Z,6.30
2022-11-16T00:44:38.086Z,6.70
2022-11-16T00:45:38.032Z,6.10
2022-11-16T00:46:38.026Z,6.60
2022-11-16T00:47:37.993Z,6.00
2022-11-16T00:48:38.938Z,6.30
2022-11-16T00:49:39.029Z,6.20
2022-11-16T00:50:37.950Z,6.70
2022-11-16T00:51:37.934Z,6.30
2022-11-16T00:52:37.910Z,6.50
2022-11-16T00:53:37.898Z,6.10
2022-11-16T00:54:38.578Z,6.70
2022-11-16T00:55:37.859Z,6.60
2022-11-16T00:56:37.860Z,5.90
2022-11-16T00:57:37.864Z,6.60
2022-11-16T00:58:37.828Z,6.30
2022-11-16T00:59:37.839Z,6.20
2022-11-16T01:00:38.432Z,5.90
2022-11-16T01:01:38.604Z,6.30
2022-11-16T01:02:38.329Z,6.30
2022-11-16T01:03:37.725Z,6.30
2022-11-16T01:04:37.738Z,6.40
2022-11-16T01:05:37.699Z,6.70
2022-11-16T01:06:37.701Z,6.40
2022-11-16T01:07:37.756Z,6.70
2022-11-16T01:08:37.744Z,6.70
2022-11-16T01:09:38.442Z,6.70
2022-11-16T01:10:37.624Z,6.90
2022-11-16T01:11:37.674Z,7.20
2022-11-16T01:12:37.567Z,6.70
2022-11-16T01:13:38.558Z,6.70
2022-11-16T01:14:37.576Z,7.10
2022-11-16T01:15:37.534Z,6.90
2022-11-16T01:16:37.508Z,6.60
2022-11-16T01:17:37.490Z,7.10
2022-11-16T01:18:37.490Z,6.90
2022-11-16T01:19:38.388Z,6.60
2022-11-16T01:20:37.437Z,7.00
2022-11-16T01:21:37.449Z,7.00
2022-11-16T01:22:37.442Z,6.70
2022-11-16T01:23:37.393Z,7.00
2022-11-16T01:24:37.419Z,6.40
2022-11-16T01:25:38.028Z,6.70
2022-11-16T01:26:37.332Z,7.20
2022-11-16T01:27:37.315Z,7.50
2022-11-16T01:28:37.376Z,6.70
2022-11-16T01:29:37.327Z,7.00
2022-11-16T01:30:37.278Z,7.30
2022-11-16T01:31:37.247Z,6.40
2022-11-16T01:32:37.233Z,7.20
2022-11-16T01:33:37.865Z,7.30
2022-11-16T01:34:37.627Z,6.90
2022-11-16T01:35:37.177Z,7.20
2022-11-16T01:36:37.195Z,7.00
2022-11-16T01:37:37.147Z,6.80
2022-11-16T01:38:37.353Z,6.90
2022-11-16T01:39:37.151Z,7.20
2022-11-16T01:40:37.875Z,6.80
2022-11-16T01:41:38.008Z,6.90
2022-11-16T01:42:37.876Z,7.00
2022-11-16T01:43:38.039Z,6.90
2022-11-16T01:44:37.078Z,7.10
2022-11-16T01:45:37.019Z,7.00
2022-11-16T01:46:36.997Z,7.00
2022-11-16T01:47:36.989Z,6.60
2022-11-16T01:48:37.352Z,6.60
2022-11-16T01:49:37.935Z,6.20
2022-11-16T01:50:36.919Z,6.20
2022-11-16T01:51:38.008Z,7.00
2022-11-16T01:52:36.913Z,7.00
2022-11-16T01:53:36.887Z,6.70
2022-11-16T01:54:36.888Z,6.50
2022-11-16T01:55:37.454Z,7.10
2022-11-16T01:56:36.842Z,6.60
2022-11-16T01:57:36.804Z,7.30
2022-11-16T01:58:36.982Z,6.90
2022-11-16T01:59:36.931Z,6.90
2022-11-16T02:00:36.776Z,6.90
2022-11-16T02:01:36.800Z,6.90
2022-11-16T02:02:36.738Z,7.00
2022-11-16T02:03:36.733Z,6.50
2022-11-16T02:04:37.507Z,7.10
2022-11-16T02:05:36.675Z,7.00
2022-11-16T02:06:36.659Z,6.60
2022-11-16T02:07:36.730Z,7.00
2022-11-16T02:08:36.722Z,7.20
2022-11-16T02:09:37.552Z,7.00
2022-11-16T02:10:36.601Z,7.50
2022-11-16T02:11:36.588Z,7.10
2022-11-16T02:12:36.562Z,7.20
2022-11-16T02:13:36.552Z,7.20
2022-11-16T02:14:36.563Z,7.50
2022-11-16T02:15:36.582Z,6.80
2022-11-16T02:16:36.493Z,7.50
2022-11-16T02:17:37.375Z,7.20
2022-11-16T02:18:36.647Z,8.10
2022-11-16T02:19:37.481Z,7.50
2022-11-16T02:20:36.440Z,7.70
2022-11-16T02:21:36.414Z,7.20
2022-11-16T02:22:36.405Z,7.50
2022-11-16T02:23:36.379Z,6.90
2022-11-16T02:24:36.439Z,7.50
2022-11-16T02:25:36.994Z,7.60
2022-11-16T02:26:36.348Z,7.80
2022-11-16T02:27:36.318Z,7.60
2022-11-16T02:28:36.580Z,7.70
2022-11-16T02:29:36.359Z,7.70
2022-11-16T02:30:36.259Z,7.70
2022-11-16T02:31:36.233Z,7.60
2022-11-16T02:32:37.045Z,8.10
2022-11-16T02:33:36.199Z,7.40
2022-11-16T02:34:36.340Z,7.90
2022-11-16T02:35:36.177Z,8.30
2022-11-16T02:36:36.154Z,8.00
2022-11-16T02:37:36.129Z,8.00
2022-11-16T02:38:36.972Z,8.10
2022-11-16T02:39:36.108Z,7.90
2022-11-16T02:40:36.111Z,8.00
2022-11-16T02:41:36.079Z,8.20
2022-11-16T02:42:36.091Z,7.80
2022-11-16T02:43:36.042Z,8.20
2022-11-16T02:44:36.005Z,7.70
2022-11-16T02:45:36.022Z,8.50
2022-11-16T02:46:36.005Z,8.30
2022-11-16T02:47:36.862Z,7.90
2022-11-16T02:48:36.225Z,8.60
2022-11-16T02:49:35.928Z,8.50
2022-11-16T02:50:35.946Z,8.30
2022-11-16T02:51:35.889Z,8.60
2022-11-16T02:52:35.881Z,8.30
2022-11-16T02:53:35.912Z,8.50
2022-11-16T02:54:36.802Z,8.60
2022-11-16T02:55:35.872Z,8.90
2022-11-16T02:56:35.797Z,8.50
2022-11-16T02:57:35.791Z,8.10
2022-11-16T02:58:35.856Z,8.30
2022-11-16T02:59:35.803Z,7.90
2022-11-16T03:00:35.801Z,8.30
2022-11-16T03:01:35.717Z,8.40
2022-11-16T03:02:35.704Z,9.00
2022-11-16T03:03:36.357Z,8.50
2022-11-16T03:04:36.494Z,8.40
2022-11-16T03:05:36.298Z,8.50
2022-11-16T03:06:35.631Z,9.40
2022-11-16T03:07:36.620Z,8.50
2022-11-16T03:08:35.788Z,9.00
2022-11-16T03:09:35.578Z,8.80
2022-11-16T03:10:35.587Z,9.10
2022-11-16T03:11:35.543Z,9.10
2022-11-16T03:12:35.537Z,8.60
2022-11-16T03:13:35.507Z,8.90
2022-11-16T03:14:36.405Z,9.20
2022-11-16T03:15:36.432Z,9.30
2022-11-16T03:16:35.475Z,9.70
2022-11-16T03:17:35.429Z,8.90
2022-11-16T03:18:36.721Z,9.10
2022-11-16T03:19:35.477Z,10.00
2022-11-16T03:20:35.431Z,9.20
2022-11-16T03:21:35.371Z,9.20
2022-11-16T03:22:35.352Z,9.50
2022-11-16T03:23:35.391Z,9.60
2022-11-16T03:24:35.327Z,10.30
2022-11-16T03:25:35.327Z,10.50
2022-11-16T03:27:07.644Z,10.10
2022-11-16T03:27:36.309Z,10.20
2022-11-16T03:28:35.538Z,10.20
2022-11-16T03:29:35.236Z,10.10
2022-11-16T03:30:35.321Z,10.30
2022-11-16T03:31:35.202Z,9.90
2022-11-16T03:32:35.215Z,10.30
2022-11-16T03:33:35.203Z,10.60
2022-11-16T03:34:35.804Z,10.30
2022-11-16T03:35:35.908Z,10.60
2022-11-16T03:36:35.143Z,10.70
2022-11-16T03:37:35.102Z,10.60
2022-11-16T03:38:35.366Z,11.60
2022-11-16T03:39:35.820Z,11.10
2022-11-16T03:40:35.997Z,11.50
2022-11-16T03:41:35.029Z,11.80
2022-11-16T03:42:35.019Z,11.30
2022-11-16T03:43:35.000Z,11.80
2022-11-16T03:44:34.984Z,11.70
2022-11-16T03:45:34.997Z,10.60
2022-11-16T03:46:34.942Z,11.40
2022-11-16T03:47:34.927Z,11.50
2022-11-16T03:48:35.258Z,12.00
2022-11-16T03:49:35.566Z,12.10
2022-11-16T03:50:34.912Z,12.60
2022-11-16T03:51:34.890Z,12.40
2022-11-16T03:52:34.843Z,12.80
2022-11-16T03:53:34.828Z,13.20
2022-11-16T03:54:34.802Z,12.60
2022-11-16T03:55:34.872Z,13.40
2022-11-16T03:56:35.539Z,12.90
2022-11-16T03:57:35.747Z,13.60
2022-11-16T03:58:35.816Z,13.60
2022-11-16T03:59:34.747Z,15.70
2022-11-16T04:00:34.847Z,15.20
2022-11-16T04:01:34.689Z,15.50
2022-11-16T04:02:34.665Z,15.40
2022-11-16T04:03:34.651Z,16.00
2022-11-16T04:04:34.634Z,15.30
2022-11-16T04:05:34.654Z,16.10
2022-11-16T04:06:35.353Z,15.20
2022-11-16T04:07:34.653Z,15.20
2022-11-16T04:08:34.996Z,15.70
2022-11-16T04:09:34.539Z,15.40
2022-11-16T04:10:34.567Z,15.00
2022-11-16T04:11:34.502Z,15.50
2022-11-16T04:12:34.502Z,15.90
2022-11-16T04:13:35.361Z,15.70
2022-11-16T04:14:34.464Z,15.90
2022-11-16T04:15:34.472Z,15.60
2022-11-16T04:16:34.429Z,16.10
2022-11-16T04:17:34.409Z,17.00
2022-11-16T04:18:35.732Z,15.90
2022-11-16T04:19:34.557Z,17.20
2022-11-16T04:20:35.385Z,17.30
2022-11-16T04:21:34.331Z,18.20
2022-11-16T04:22:34.322Z,17.50
2022-11-16T04:23:34.328Z,17.90
2022-11-16T04:24:34.294Z,18.00
2022-11-16T04:25:34.301Z,18.50
2022-11-16T04:26:34.975Z,18.40
2022-11-16T04:27:34.224Z,17.80
2022-11-16T04:28:34.383Z,19.10
2022-11-16T04:29:34.213Z,18.90
2022-11-16T04:30:34.218Z,18.50
2022-11-16T04:31:34.182Z,19.00
2022-11-16T04:32:34.143Z,19.70
2022-11-16T04:33:34.134Z,18.80
2022-11-16T04:34:34.115Z,19.30
2022-11-16T04:35:34.133Z,18.80
2022-11-16T04:36:34.076Z,19.60
2022-11-16T04:37:34.117Z,18.80
2022-11-16T04:38:34.512Z,19.60
2022-11-16T04:39:34.850Z,19.60
2022-11-16T04:40:34.449Z,20.50
2022-11-16T04:41:34.794Z,21.20
2022-11-16T04:42:33.987Z,21.30
2022-11-16T04:43:33.961Z,21.40
2022-11-16T04:44:33.944Z,20.30
2022-11-16T04:45:33.963Z,21.40
2022-11-16T04:46:33.926Z,20.80
2022-11-16T04:47:33.893Z,20.80
2022-11-16T04:48:35.361Z,20.70
2022-11-16T04:49:33.855Z,20.20
2022-11-16T04:50:33.888Z,20.60
2022-11-16T04:51:33.827Z,20.70
2022-11-16T04:52:33.891Z,19.40
2022-11-16T04:53:34.388Z,19.80
2022-11-16T04:54:33.823Z,20.10
2022-11-16T04:55:33.794Z,19.60
2022-11-16T04:56:33.766Z,20.40
2022-11-16T04:57:33.729Z,19.50
2022-11-16T04:58:33.981Z,19.60
2022-11-16T04:59:33.711Z,21.20
2022-11-16T05:00:34.388Z,20.80
2022-11-16T05:01:33.793Z,20.20
2022-11-16T05:02:33.636Z,20.50
2022-11-16T05:03:33.626Z,20.30
2022-11-16T05:04:33.614Z,21.30
2022-11-16T05:05:33.613Z,20.60
2022-11-16T05:06:33.570Z,21.00
2022-11-16T05:07:33.617Z,21.10
2022-11-16T05:08:33.803Z,20.90
2022-11-16T05:09:33.521Z,21.80
2022-11-16T05:10:33.635Z,21.50
2022-11-16T05:11:33.487Z,21.50
2022-11-16T05:12:33.465Z,21.60
2022-11-16T05:13:34.027Z,21.70
2022-11-16T05:14:33.423Z,21.00
2022-11-16T05:15:33.463Z,21.70
2022-11-16T05:16:33.387Z,21.30
2022-11-16T05:17:33.374Z,20.60
2022-11-16T05:18:33.745Z,20.80
2022-11-16T05:19:33.342Z,22.40
2022-11-16T05:20:33.400Z,21.30
2022-11-16T05:21:34.316Z,22.60
2022-11-16T05:22:33.299Z,22.80
2022-11-16T05:23:33.266Z,22.50
2022-11-16T05:24:33.262Z,23.40
2022-11-16T05:25:36.687Z,23.90
2022-11-16T05:26:34.969Z,22.60
2022-11-16T05:27:33.195Z,22.30
2022-11-16T05:28:33.554Z,23.20
2022-11-16T05:29:33.167Z,22.30
2022-11-16T05:30:33.157Z,23.10
2022-11-16T05:31:37.663Z,23.10
2022-11-16T05:32:35.116Z,23.50
2022-11-16T05:33:33.123Z,23.70
2022-11-16T05:34:33.955Z,23.50
2022-11-16T05:35:33.096Z,23.60
2022-11-16T05:36:33.080Z,23.30
2022-11-16T05:37:33.037Z,22.60
2022-11-16T05:38:33.392Z,23.80
2022-11-16T05:39:33.006Z,23.00
2022-11-16T05:40:32.978Z,20.50
2022-11-16T05:41:33.024Z,22.00
2022-11-16T05:42:32.939Z,22.50
2022-11-16T05:43:32.969Z,21.90
2022-11-16T05:44:32.907Z,22.80
2022-11-16T05:45:32.898Z,21.70
2022-11-16T05:46:32.962Z,22.00
2022-11-16T05:47:32.913Z,22.00
2022-11-16T05:48:33.216Z,21.90
2022-11-16T05:49:32.847Z,23.80
2022-11-16T05:50:32.809Z,23.30
2022-11-16T05:51:32.852Z,22.80
2022-11-16T05:52:33.472Z,22.60
2022-11-16T05:53:32.750Z,24.30
2022-11-16T05:54:32.750Z,23.30
2022-11-16T05:55:32.768Z,23.00
2022-11-16T05:56:32.789Z,22.40
2022-11-16T05:57:32.681Z,22.20
2022-11-16T05:58:33.176Z,22.10
2022-11-16T05:59:33.488Z,23.20
2022-11-16T06:00:32.649Z,22.80
2022-11-16T06:01:32.665Z,22.90
2022-11-16T06:02:32.613Z,23.70
2022-11-16T06:03:32.663Z,22.70
2022-11-16T06:04:32.586Z,23.50
2022-11-16T06:05:35.145Z,23.00
2022-11-16T06:06:34.678Z,22.40
2022-11-16T06:07:32.634Z,23.80
2022-11-16T06:08:32.825Z,22.90
2022-11-16T06:09:32.480Z,23.80
2022-11-16T06:10:33.331Z,22.10
2022-11-16T06:11:36.016Z,21.60
2022-11-16T06:12:33.439Z,22.80
2022-11-16T06:13:32.416Z,22.20
2022-11-16T06:14:32.398Z,23.40
2022-11-16T06:15:32.395Z,20.90
2022-11-16T06:16:32.755Z,21.40
2022-11-16T06:17:33.268Z,20.20
2022-11-16T06:18:32.721Z,21.60
2022-11-16T06:19:32.806Z,21.80
2022-11-16T06:20:33.298Z,21.50
2022-11-16T06:21:32.304Z,20.70
2022-11-16T06:22:32.292Z,22.40
2022-11-16T06:23:32.237Z,20.50
2022-11-16T06:24:32.240Z,20.50
2022-11-16T06:25:32.222Z,19.80
2022-11-16T06:26:32.774Z,20.30
2022-11-16T06:27:32.898Z,20.20
2022-11-16T06:28:32.499Z,20.30
2022-11-16T06:29:32.196Z,20.80
2022-11-16T06:30:32.180Z,21.00
2022-11-16T06:31:32.156Z,20.20
2022-11-16T06:32:33.710Z,20.70
2022-11-16T06:33:33.703Z,20.50
2022-11-16T06:34:33.085Z,20.10
2022-11-16T06:35:32.035Z,19.90
2022-11-16T06:36:32.075Z,20.10
2022-11-16T06:37:32.004Z,18.80
2022-11-16T06:38:32.399Z,18.00
2022-11-16T06:39:31.977Z,17.80
2022-11-16T06:42:38.642Z,19.80
2022-11-16T06:43:17.575Z,20.00
2022-11-16T06:44:17.557Z,20.80
2022-11-16T06:45:17.545Z,20.20
2022-11-16T06:46:17.571Z,20.40
2022-11-16T06:47:17.506Z,20.50
2022-11-16T06:48:17.554Z,20.10
2022-11-16T06:49:17.458Z,21.20
2022-11-16T06:50:17.479Z,20.90
2022-11-16T06:51:17.451Z,20.80
2022-11-16T06:52:17.401Z,21.20
2022-11-16T06:53:17.384Z,77.40
2022-11-16T06:54:17.365Z,21.60
2022-11-16T06:55:17.362Z,23.60
2022-11-16T06:56:17.354Z,21.50
2022-11-16T06:57:17.319Z,21.70
2022-11-16T06:58:17.296Z,30.80
2022-11-16T06:59:17.274Z,21.10
2022-11-16T07:00:17.273Z,21.70
2022-11-16T07:01:17.312Z,27.10
2022-11-16T07:02:17.208Z,24.00
2022-11-16T07:03:17.194Z,21.00
2022-11-16T07:04:17.407Z,20.50
2022-11-16T07:05:17.167Z,21.20
2022-11-16T07:06:17.182Z,20.20
2022-11-16T07:07:17.139Z,23.20
2022-11-16T07:08:17.100Z,20.20
2022-11-16T07:09:17.092Z,19.30
2022-11-16T07:10:17.071Z,20.90
2022-11-16T07:11:17.099Z,22.20
2022-11-16T07:12:18.191Z,19.40
2022-11-16T07:13:18.167Z,20.20
2022-11-16T07:14:18.161Z,20.70
2022-11-16T07:15:18.133Z,20.10
2022-11-16T07:16:18.156Z,20.10
2022-11-16T07:17:18.107Z,19.80
2022-11-16T07:18:18.103Z,18.70
2022-11-16T07:19:18.061Z,18.90
2022-11-16T07:20:18.059Z,19.50
2022-11-16T07:21:18.058Z,18.60
2022-11-16T07:22:18.015Z,19.60
2022-11-16T07:23:18.001Z,19.90
2022-11-16T07:24:17.973Z,19.60
2022-11-16T07:25:17.975Z,20.50
2022-11-16T07:26:17.976Z,19.80
2022-11-16T07:27:17.941Z,36.80
2022-11-16T07:28:17.911Z,20.60
2022-11-16T07:29:17.904Z,21.30
2022-11-16T07:30:17.876Z,25.10
2022-11-16T07:31:18.054Z,21.10
2022-11-16T07:32:17.837Z,21.80
2022-11-16T07:33:18.833Z,21.50
2022-11-16T07:34:17.816Z,22.10
2022-11-16T07:35:17.792Z,20.80
2022-11-16T07:36:17.842Z,20.90
2022-11-16T07:37:17.767Z,22.40
2022-11-16T07:38:18.238Z,20.60
2022-11-16T07:39:18.742Z,22.00
2022-11-16T07:40:17.726Z,24.60
2022-11-16T07:41:17.746Z,22.30
2022-11-16T07:42:17.675Z,22.60
2022-11-16T07:43:17.707Z,22.40
2022-11-16T07:44:17.672Z,22.50
2022-11-16T07:45:17.626Z,22.90
2022-11-16T07:46:45.342Z,23.20
2022-11-16T07:47:19.606Z,25.70
2022-11-16T07:48:17.567Z,24.10
2022-11-16T07:49:17.551Z,23.80
2022-11-16T07:50:17.542Z,23.00
2022-11-16T07:51:17.527Z,26.20
2022-11-16T07:52:17.563Z,22.90
2022-11-16T07:53:17.490Z,24.30
2022-11-16T07:54:17.461Z,24.00
2022-11-16T07:55:17.463Z,24.40
2022-11-16T07:56:17.469Z,24.70
2022-11-16T07:57:17.425Z,23.80
2022-11-16T07:58:17.396Z,26.20
2022-11-16T07:59:17.381Z,27.60
2022-11-16T08:00:17.365Z,24.50
2022-11-16T08:01:17.412Z,23.60
2022-11-16T08:02:17.439Z,23.80
2022-11-16T08:03:21.820Z,24.80
2022-11-16T08:04:19.294Z,25.20
2022-11-16T08:05:17.277Z,24.40
2022-11-16T08:06:17.283Z,25.40
2022-11-16T08:07:17.328Z,24.90
2022-11-16T08:08:17.334Z,24.60
2022-11-16T08:09:17.211Z,24.70
2022-11-16T08:10:17.283Z,25.10
2022-11-16T08:11:17.171Z,25.30
2022-11-16T08:12:17.188Z,24.50
2022-11-16T08:13:17.144Z,23.80
2022-11-16T08:14:17.131Z,24.20
2022-11-16T08:15:17.094Z,25.60
2022-11-16T08:16:17.093Z,24.40
2022-11-16T08:17:17.107Z,24.60
2022-11-16T08:18:17.154Z,23.50
2022-11-16T08:19:17.036Z,24.00
2022-11-16T08:20:17.018Z,22.90
2022-11-16T08:21:17.030Z,26.20
2022-11-16T08:22:17.049Z,23.90
2022-11-16T08:23:17.062Z,21.60
2022-11-16T08:24:17.013Z,22.40
2022-11-16T08:25:16.935Z,22.50
2022-11-16T08:26:16.916Z,22.90
2022-11-16T08:27:16.929Z,21.80
2022-11-16T08:28:16.889Z,22.80
2022-11-16T08:29:16.871Z,22.30
2022-11-16T08:30:16.853Z,22.80
2022-11-16T08:31:16.838Z,21.40
2022-11-16T08:32:16.853Z,22.80
2022-11-16T08:33:16.839Z,22.40
2022-11-16T08:34:16.787Z,22.30
2022-11-16T08:35:16.775Z,22.30
2022-11-16T08:36:16.767Z,23.00
2022-11-16T08:37:16.805Z,21.30
2022-11-16T08:38:16.706Z,21.30
2022-11-16T08:39:16.697Z,22.70
2022-11-16T08:40:16.669Z,22.30
2022-11-16T08:41:16.660Z,21.10
2022-11-16T08:42:17.226Z,20.20
2022-11-16T08:43:16.672Z,22.10
2022-11-16T08:44:16.623Z,20.40
2022-11-16T08:45:16.637Z,20.50
2022-11-16T08:46:16.582Z,19.70
2022-11-16T08:47:16.597Z,21.60
2022-11-16T08:48:16.541Z,21.20
2022-11-16T08:49:16.528Z,21.00
2022-11-16T08:50:16.516Z,21.60
2022-11-16T08:51:18.594Z,20.20
2022-11-16T08:52:17.500Z,18.90
2022-11-16T08:53:16.449Z,20.20
2022-11-16T08:54:16.433Z,20.20
2022-11-16T08:55:16.435Z,21.30
2022-11-16T08:56:16.400Z,21.10
2022-11-16T08:57:16.421Z,19.10
2022-11-16T08:58:16.411Z,17.00
2022-11-16T08:59:16.363Z,21.10
2022-11-16T09:00:16.340Z,19.10
2022-11-16T09:01:16.404Z,19.90
2022-11-16T09:02:16.357Z,20.50
2022-11-16T09:03:17.311Z,20.90
2022-11-16T09:04:16.314Z,21.20
2022-11-16T09:05:16.255Z,20.40
2022-11-16T09:06:16.225Z,20.50
2022-11-16T09:07:16.294Z,20.00
2022-11-16T09:08:16.200Z,20.00
2022-11-16T09:09:16.193Z,19.40
2022-11-16T09:10:16.190Z,19.10
2022-11-16T09:11:16.171Z,19.30
2022-11-16T09:12:16.259Z,20.40
2022-11-16T09:13:16.145Z,19.20
2022-11-16T09:14:16.118Z,19.30
2022-11-16T09:15:16.077Z,18.30
2022-11-16T09:16:16.091Z,19.60
2022-11-16T09:17:21.735Z,20.00
2022-11-16T09:18:18.073Z,19.80
2022-11-16T09:19:16.007Z,18.90
2022-11-16T09:20:15.997Z,18.00
2022-11-16T09:21:15.973Z,17.40
2022-11-16T09:22:15.978Z,15.60
2022-11-16T09:23:17.801Z,16.90
2022-11-16T09:24:16.936Z,16.80
2022-11-16T09:25:15.905Z,19.70
2022-11-16T09:26:15.892Z,19.80
2022-11-16T09:27:15.958Z,18.10
2022-11-16T09:28:15.919Z,19.00
2022-11-16T09:29:15.842Z,19.00
2022-11-16T09:30:15.821Z,18.70
2022-11-16T09:31:20.369Z,17.90
2022-11-16T09:32:17.835Z,18.90
2022-11-16T09:33:15.781Z,19.60
2022-11-16T09:34:15.755Z,18.10
2022-11-16T09:35:15.741Z,17.70
2022-11-16T09:36:15.724Z,19.50
2022-11-16T09:37:15.732Z,18.30
2022-11-16T09:38:22.152Z,17.50
2022-11-16T09:39:33.010Z,17.80
2022-11-16T09:40:17.738Z,16.90
2022-11-16T09:41:15.635Z,15.70
2022-11-16T09:42:15.657Z,16.10
2022-11-16T09:43:15.599Z,15.20
2022-11-16T09:44:15.688Z,16.10
2022-11-16T09:45:15.579Z,16.40
2022-11-16T09:46:15.560Z,15.60
2022-11-16T09:47:15.572Z,15.30
2022-11-16T09:48:15.522Z,14.00
2022-11-16T09:49:17.613Z,16.30
2022-11-16T09:50:16.485Z,14.90
2022-11-16T09:51:15.531Z,14.70
2022-11-16T09:52:15.476Z,14.00
2022-11-16T09:53:15.434Z,13.20
2022-11-16T09:54:15.417Z,13.50
2022-11-16T09:55:16.228Z,12.90
2022-11-16T09:56:21.720Z,13.70
2022-11-16T09:57:17.393Z,13.50
2022-11-16T09:58:15.346Z,13.20
2022-11-16T09:59:18.270Z,14.90
2022-11-16T10:00:16.399Z,15.00
2022-11-16T10:01:15.340Z,15.80
2022-11-16T10:02:15.313Z,14.10
2022-11-16T10:03:15.266Z,15.10
2022-11-16T10:04:15.236Z,12.50
2022-11-16T10:05:15.230Z,13.00
2022-11-16T10:06:15.216Z,14.10
2022-11-16T10:07:15.287Z,13.80
2022-11-16T10:08:15.174Z,13.40
2022-11-16T10:09:15.171Z,12.60
2022-11-16T10:10:15.135Z,13.00
2022-11-16T10:11:15.128Z,12.10
2022-11-16T10:12:15.132Z,12.90
2022-11-16T10:13:15.083Z,13.20
2022-11-16T10:14:15.077Z,12.30
2022-11-16T10:15:15.055Z,13.50
2022-11-16T10:16:15.043Z,12.70
2022-11-16T10:17:15.054Z,12.80
2022-11-16T10:18:15.031Z,13.00
2022-11-16T10:19:14.989Z,12.60
2022-11-16T10:20:14.980Z,11.70
2022-11-16T10:21:14.980Z,11.30
2022-11-16T10:22:14.990Z,12.30
2022-11-16T10:23:14.949Z,12.10
2022-11-16T10:24:14.934Z,12.50
2022-11-16T10:25:14.911Z,11.50
2022-11-16T10:26:14.879Z,13.60
2022-11-16T10:27:19.226Z,15.60
2022-11-16T10:28:16.863Z,14.00
2022-11-16T10:29:14.841Z,22.70
2022-11-16T10:30:14.861Z,21.10
2022-11-16T10:31:14.804Z,15.50
2022-11-16T10:32:14.878Z,20.00
2022-11-16T10:33:14.771Z,12.60
2022-11-16T10:34:14.759Z,13.00
2022-11-16T10:35:14.731Z,19.00
2022-11-16T10:36:14.721Z,13.80
2022-11-16T10:37:14.724Z,13.90
2022-11-16T10:38:14.683Z,14.90
2022-11-16T10:39:14.677Z,13.70
2022-11-16T10:40:14.675Z,136.60
2022-11-16T10:41:14.632Z,53.80
2022-11-16T10:42:14.629Z,12.20
2022-11-16T10:43:14.589Z,12.40
2022-11-16T10:44:14.583Z,22.10
2022-11-16T10:45:14.554Z,13.30
2022-11-16T10:46:14.558Z,12.60
2022-11-16T10:47:14.578Z,12.20
2022-11-16T10:48:14.575Z,12.00
2022-11-16T10:49:14.500Z,11.20
2022-11-16T10:50:14.468Z,18.10
2022-11-16T10:51:14.447Z,11.60
2022-11-16T10:52:14.477Z,12.20
2022-11-16T10:53:14.427Z,10.80
2022-11-16T10:54:14.412Z,13.20
2022-11-16T10:55:14.400Z,11.90
2022-11-16T10:56:14.375Z,11.40
2022-11-16T10:57:14.395Z,10.50
2022-11-16T10:58:14.338Z,11.70
2022-11-16T10:59:14.324Z,10.80
2022-11-16T11:00:18.337Z,10.90
2022-11-16T11:01:16.340Z,11.10
2022-11-16T11:02:14.309Z,11.10
2022-11-16T11:03:14.258Z,12.20
2022-11-16T11:04:14.248Z,11.10
2022-11-16T11:05:14.242Z,11.90
2022-11-16T11:06:14.215Z,11.90
2022-11-16T11:07:14.255Z,12.00
2022-11-16T11:08:14.173Z,10.70
2022-11-16T11:09:14.154Z,10.30
2022-11-16T11:10:14.177Z,9.30
2022-11-16T11:11:14.119Z,8.50
2022-11-16T11:12:14.164Z,8.30
2022-11-16T11:13:14.081Z,8.30
2022-11-16T11:14:14.083Z,8.20
2022-11-16T11:15:14.052Z,8.20
2022-11-16T11:16:14.036Z,8.30
2022-11-16T11:17:14.048Z,8.60
2022-11-16T11:18:14.011Z,8.60
2022-11-16T11:19:13.991Z,8.50
2022-11-16T11:20:14.030Z,8.60
2022-11-16T11:21:13.950Z,8.60
2022-11-16T11:22:13.976Z,8.10
2022-11-16T11:23:13.933Z,7.50
2022-11-16T11:24:42.820Z,7.40
2022-11-16T11:25:15.878Z,8.30
2022-11-16T11:26:13.866Z,7.80
2022-11-16T11:27:13.916Z,8.30
2022-11-16T11:28:13.873Z,9.30
2022-11-16T11:29:13.840Z,10.70
2022-11-16T11:30:13.797Z,8.20
2022-11-16T11:31:14.743Z,9.80
2022-11-16T11:32:15.187Z,9.80
2022-11-16T11:33:13.752Z,8.00
2022-11-16T11:34:13.742Z,6.80
2022-11-16T11:35:13.716Z,5.90
2022-11-16T11:36:13.801Z,5.80
2022-11-16T11:37:13.714Z,5.70
2022-11-16T11:38:13.721Z,7.70
2022-11-16T11:39:13.695Z,15.80
2022-11-16T11:40:13.674Z,10.30
2022-11-16T11:41:13.611Z,6.10
2022-11-16T11:42:13.641Z,6.40
2022-11-16T11:43:18.706Z,7.20
2022-11-16T11:44:15.569Z,5.90
2022-11-16T11:45:13.605Z,4.90
2022-11-16T11:46:13.536Z,8.00
2022-11-16T11:48:15.536Z,4.70
2022-11-16T11:49:13.497Z,4.30
2022-11-16T11:50:13.460Z,4.00
2022-11-16T11:51:13.450Z,4.50
2022-11-16T11:52:13.424Z,4.40
2022-11-16T11:53:13.632Z,4.90
2022-11-16T11:54:13.392Z,4.00
2022-11-16T11:55:13.388Z,3.60
2022-11-16T11:56:13.365Z,3.60
2022-11-16T11:57:13.342Z,3.20
2022-11-16T11:58:13.365Z,3.20
2022-11-16T11:59:13.314Z,3.50
2022-11-16T12:00:13.327Z,3.20
2022-11-16T12:01:13.297Z,3.30
2022-11-16T12:02:13.282Z,3.30
2022-11-16T12:03:13.308Z,3.20
2022-11-16T12:04:13.243Z,3.10
2022-11-16T12:05:13.208Z,3.00
2022-11-16T12:06:13.200Z,3.20
2022-11-16T12:07:13.223Z,3.00
2022-11-16T12:08:13.255Z,3.00
2022-11-16T12:09:13.166Z,3.30
2022-11-16T12:10:13.183Z,3.00
2022-11-16T12:11:13.112Z,3.20
2022-11-16T12:12:14.870Z,3.20
2022-11-16T12:13:14.123Z,5.40
2022-11-16T12:14:13.268Z,4.70
2022-11-16T12:15:13.048Z,4.90
2022-11-16T12:16:13.022Z,3.90
2022-11-16T12:17:13.011Z,4.30
2022-11-16T12:18:13.020Z,4.60
2022-11-16T12:19:12.982Z,3.60
2022-11-16T12:20:13.019Z,3.50
2022-11-16T12:21:12.979Z,3.90
2022-11-16T12:22:12.942Z,3.10
2022-11-16T12:23:12.963Z,3.00
2022-11-16T12:24:12.901Z,2.90
2022-11-16T12:25:12.888Z,2.70
2022-11-16T12:26:12.871Z,2.80
2022-11-16T12:27:12.858Z,2.80
2022-11-16T12:28:12.854Z,2.90
2022-11-16T12:29:12.807Z,2.60
2022-11-16T12:30:12.841Z,2.80
2022-11-16T12:31:12.777Z,2.70
2022-11-16T12:32:12.767Z,2.80
2022-11-16T12:33:12.784Z,2.90
2022-11-16T12:34:12.729Z,2.70
2022-11-16T12:35:12.721Z,2.60
2022-11-16T12:36:12.694Z,2.60
2022-11-16T12:37:12.685Z,2.40
2022-11-16T12:38:12.698Z,2.30
2022-11-16T12:39:12.655Z,2.40
2022-11-16T12:40:12.721Z,2.00
2022-11-16T12:41:12.620Z,2.40
2022-11-16T12:42:12.596Z,2.00
2022-11-16T12:43:12.607Z,1.90
2022-11-16T12:44:12.561Z,2.80
2022-11-16T12:45:12.574Z,2.30
2022-11-16T12:46:12.525Z,1.90
2022-11-16T12:47:12.511Z,2.10
2022-11-16T12:48:12.534Z,2.40
2022-11-16T12:49:12.481Z,2.10
2022-11-16T12:50:12.529Z,2.10
2022-11-16T12:51:12.449Z,1.90
2022-11-16T12:52:12.443Z,2.10
2022-11-16T12:53:12.442Z,2.10
2022-11-16T12:54:12.407Z,2.10
2022-11-16T12:55:25.805Z,1.80
2022-11-16T12:56:14.442Z,1.80
2022-11-16T12:57:12.341Z,2.00
2022-11-16T12:58:12.393Z,2.00
2022-11-16T12:59:12.313Z,1.80
2022-11-16T13:00:12.337Z,2.00
2022-11-16T13:01:12.449Z,1.90
2022-11-16T13:02:12.272Z,2.00
2022-11-16T13:03:12.274Z,1.80
2022-11-16T13:04:12.222Z,2.30
2022-11-16T13:05:13.212Z,2.10